Huvudsida
METAR-TAF:

METAR-TAF

Flygplatser :

Mora-Siljan flygplats

Mora, Sverige

latitud: 60-57-31N, longitud: 14-30-40E, höjd: 193 m

Aktuellt väderrapport

Denna rapport gjordes för 18 minuter sedan, klockan 00:50 UTC
Vind 3 kt från nord/nordväst
Temperatur 2°C
Fuktighet 75%
Tryck 1023 hPa
Sikt 10 km eller mer

METAR: ESKM 210050Z AUTO 33003KT 9999 FEW180/// 02/M02 Q1023

Tid: 03:08 (01:08 UTC)


TAF: saknas

Aktuella väderrapporter och prognoser från 4000 flygplatser (METAR- och TAF-rapporter).

De tillgängliga stationerna syns som gula och röda prickar på kartan.

För musen över prickarna för att se namnen på stationerna.

Klicka sedan för att få väderrapporter och prognoser.

För att ändra kartan: Klicka på de gröna knapparna med ett svart kors på för att zooma in; den gröna knappen med ett streck på för att zooma ut; eller på de gröna pilarna för angränsande kartor.


METAR-TAF: